createdAt,value
2019-04-10T00:03:29.817Z,45.20
2019-04-10T00:08:26.215Z,45.40
2019-04-10T00:29:48.778Z,46.60
2019-04-10T00:34:54.037Z,46.40
2019-04-10T00:39:59.193Z,46.40
2019-04-10T00:45:04.659Z,46.50
2019-04-10T00:50:10.431Z,46.30
2019-04-10T00:55:15.319Z,46.10
2019-04-10T01:00:21.987Z,46.30
2019-04-10T01:05:27.810Z,45.80
2019-04-10T01:10:32.767Z,46.00
2019-04-10T01:15:38.600Z,46.30
2019-04-10T01:20:43.925Z,46.60
2019-04-10T01:25:48.540Z,46.90
2019-04-10T01:30:53.381Z,47.00
2019-04-10T01:35:58.534Z,46.30
2019-04-10T01:41:03.613Z,46.90
2019-04-10T01:46:08.377Z,46.40
2019-04-10T01:51:13.255Z,46.00
2019-04-10T01:56:25.073Z,46.00
2019-04-10T02:01:28.733Z,45.60
2019-04-10T02:06:35.778Z,45.40
2019-04-10T02:11:41.821Z,45.10
2019-04-10T02:16:47.307Z,44.80
2019-04-10T02:21:51.889Z,44.80
2019-04-10T02:26:56.721Z,45.00
2019-04-10T02:32:02.175Z,45.70
2019-04-10T02:37:06.970Z,45.60
2019-04-10T02:42:11.830Z,45.70
2019-04-10T02:47:16.880Z,45.30
2019-04-10T02:52:22.561Z,45.50
2019-04-10T02:57:27.669Z,45.60
2019-04-10T03:02:33.491Z,45.40
2019-04-10T03:07:40.089Z,45.40
2019-04-10T03:12:46.433Z,45.60
2019-04-10T03:17:51.442Z,45.70
2019-04-10T03:22:57.274Z,45.80
2019-04-10T03:28:02.843Z,46.60
2019-04-10T03:33:30.445Z,46.00
2019-04-10T03:38:34.331Z,46.00
2019-04-10T03:43:39.275Z,46.10
2019-04-10T03:48:43.931Z,45.90
2019-04-10T03:53:48.709Z,45.90
2019-04-10T03:58:53.095Z,46.00
2019-04-10T04:03:57.891Z,46.10
2019-04-10T04:09:08.962Z,46.10
2019-04-10T04:14:08.659Z,46.10
2019-04-10T04:19:13.757Z,46.30
2019-04-10T04:24:22.507Z,46.40
2019-04-10T04:29:26.963Z,46.80
2019-04-10T04:34:31.584Z,46.90
2019-04-10T04:39:37.317Z,46.80
2019-04-10T04:44:43.178Z,46.90
2019-04-10T04:49:48.350Z,47.10
2019-04-10T04:54:53.350Z,47.20
2019-04-10T04:59:58.980Z,47.50
2019-04-10T05:05:04.476Z,47.80
2019-04-10T05:10:11.174Z,47.60
2019-04-10T05:15:16.416Z,47.80
2019-04-10T05:20:20.932Z,47.50
2019-04-10T05:25:25.628Z,47.60
2019-04-10T05:30:29.937Z,48.20
2019-04-10T05:35:35.043Z,48.30
2019-04-10T05:40:40.045Z,48.60
2019-04-10T05:45:44.735Z,48.60
2019-04-10T05:50:57.905Z,48.90
2019-04-10T05:55:55.931Z,48.80
2019-04-10T06:01:02.515Z,48.70
2019-04-10T06:06:08.290Z,52.00
2019-04-10T06:11:13.704Z,48.20
2019-04-10T06:16:19.617Z,47.90
2019-04-10T06:21:25.163Z,48.40
2019-04-10T06:26:30.127Z,48.90
2019-04-10T06:31:34.842Z,48.80
2019-04-10T06:36:39.666Z,48.80
2019-04-10T06:41:44.774Z,49.10
2019-04-10T06:46:49.775Z,49.20
2019-04-10T06:51:54.265Z,49.80
2019-04-10T06:56:58.742Z,49.50
2019-04-10T07:02:16.772Z,50.30
2019-04-10T07:07:13.718Z,50.00
2019-04-10T07:12:17.101Z,49.70
2019-04-10T07:17:22.041Z,49.80
2019-04-10T07:22:26.903Z,49.70
2019-04-10T07:27:34.696Z,49.30
2019-04-10T07:32:42.148Z,49.70
2019-04-10T07:37:44.824Z,50.50
2019-04-10T07:42:50.427Z,50.40
2019-04-10T07:47:55.962Z,50.80
2019-04-10T07:53:00.612Z,50.40
2019-04-10T07:58:04.952Z,49.80
2019-04-10T08:03:09.437Z,50.30
2019-04-10T08:08:14.412Z,49.70
2019-04-10T08:13:20.353Z,49.90
2019-04-10T08:18:25.981Z,48.60
2019-04-10T08:23:31.147Z,49.30
2019-04-10T08:28:35.572Z,48.20
2019-04-10T08:33:40.137Z,49.70
2019-04-10T08:38:44.990Z,49.70
2019-04-10T08:43:50.296Z,50.70
2019-04-10T08:48:55.952Z,48.80
2019-04-10T08:54:01.038Z,51.20
2019-04-10T08:59:06.264Z,50.70
2019-04-10T09:04:12.872Z,48.70
2019-04-10T09:09:17.971Z,49.50
2019-04-10T09:14:23.395Z,49.30
2019-04-10T09:19:29.995Z,47.90
2019-04-10T09:24:36.233Z,49.60
2019-04-10T09:29:41.081Z,47.40
2019-04-10T09:34:46.745Z,46.40
2019-04-10T09:39:54.646Z,46.50
2019-04-10T09:45:02.721Z,46.50
2019-04-10T09:50:09.680Z,45.70
2019-04-10T09:55:14.418Z,43.70
2019-04-10T10:00:21.314Z,44.40
2019-04-10T10:05:28.606Z,45.80
2019-04-10T10:10:35.758Z,44.50
2019-04-10T10:15:41.422Z,42.40
2019-04-10T10:20:46.399Z,43.30
2019-04-10T10:25:51.875Z,42.60
2019-04-10T10:30:57.898Z,43.30
2019-04-10T10:36:03.432Z,42.40
2019-04-10T10:41:09.101Z,43.80
2019-04-10T10:46:13.688Z,42.70
2019-04-10T10:51:18.843Z,41.90
2019-04-10T10:56:24.446Z,40.50
2019-04-10T11:01:29.669Z,42.30
2019-04-10T11:06:36.363Z,41.00
2019-04-10T11:11:41.717Z,39.60
2019-04-10T11:16:47.030Z,39.00
2019-04-10T11:21:52.440Z,38.90
2019-04-10T11:26:57.672Z,37.90
2019-04-10T11:32:04.125Z,36.50
2019-04-10T11:37:24.153Z,39.00
2019-04-10T11:42:18.327Z,38.20
2019-04-10T11:47:24.850Z,36.30
2019-04-10T11:52:36.614Z,36.30
2019-04-10T11:57:37.304Z,36.40
2019-04-10T12:02:52.395Z,36.80
2019-04-10T12:08:20.962Z,36.30
2019-04-10T12:13:02.133Z,35.10
2019-04-10T12:18:08.633Z,35.10
2019-04-10T12:23:14.342Z,33.90
2019-04-10T12:28:20.119Z,34.30
2019-04-10T12:33:27.601Z,33.10
2019-04-10T12:38:32.491Z,33.10
2019-04-10T12:43:37.556Z,34.60
2019-04-10T12:48:45.260Z,32.70
2019-04-10T12:53:51.773Z,33.40
2019-04-10T12:58:57.206Z,33.10
2019-04-10T13:04:03.380Z,31.50
2019-04-10T13:09:12.429Z,31.90
2019-04-10T13:14:16.891Z,32.50
2019-04-10T13:19:22.282Z,31.70
2019-04-10T13:24:27.953Z,31.40
2019-04-10T13:29:33.261Z,34.60
2019-04-10T13:34:39.546Z,32.60
2019-04-10T13:39:44.662Z,32.70
2019-04-10T13:44:49.101Z,31.90
2019-04-10T13:49:54.569Z,30.50
2019-04-10T13:54:59.315Z,29.60
2019-04-10T14:00:05.814Z,29.30
2019-04-10T14:05:15.594Z,30.90
2019-04-10T14:10:22.852Z,30.10
2019-04-10T14:15:30.225Z,29.50
2019-04-10T14:20:35.506Z,29.70
2019-04-10T14:26:02.187Z,30.10
2019-04-10T14:31:15.916Z,29.40
2019-04-10T14:36:22.935Z,29.30
2019-04-10T14:41:29.517Z,29.80
2019-04-10T14:46:36.032Z,29.50
2019-04-10T14:51:41.937Z,28.50
2019-04-10T14:56:50.411Z,28.70
2019-04-10T15:01:56.276Z,28.90
2019-04-10T15:07:01.866Z,29.50
2019-04-10T15:12:09.646Z,28.90
2019-04-10T15:17:14.747Z,28.30
2019-04-10T15:22:20.230Z,27.30
2019-04-10T15:27:25.755Z,26.70
2019-04-10T15:32:31.578Z,27.90
2019-04-10T15:37:37.690Z,28.10
2019-04-10T15:42:43.958Z,27.80
2019-04-10T15:47:54.134Z,27.10
2019-04-10T15:53:02.117Z,28.50
2019-04-10T15:58:09.059Z,27.00
2019-04-10T16:03:15.577Z,26.90
2019-04-10T16:08:22.054Z,27.10
2019-04-10T16:13:40.896Z,26.30
2019-04-10T16:18:47.270Z,26.70
2019-04-10T16:23:58.480Z,26.10
2019-04-10T16:29:04.966Z,26.60
2019-04-10T16:34:10.845Z,26.90
2019-04-10T16:39:18.013Z,27.00
2019-04-10T16:44:28.837Z,26.70
2019-04-10T16:49:35.060Z,26.40
2019-04-10T16:54:40.955Z,26.80
2019-04-10T16:59:46.721Z,26.60
2019-04-10T17:04:52.697Z,26.30
2019-04-10T17:10:11.520Z,26.00
2019-04-10T17:15:08.116Z,26.60
2019-04-10T17:20:17.446Z,26.10
2019-04-10T17:25:22.189Z,25.60
2019-04-10T17:30:30.487Z,26.00
2019-04-10T17:35:38.448Z,25.90
2019-04-10T17:40:52.910Z,25.80
2019-04-10T17:45:55.146Z,26.50
2019-04-10T17:51:01.638Z,26.40
2019-04-10T17:56:11.734Z,26.80
2019-04-10T18:01:24.989Z,27.50
2019-04-10T18:06:31.112Z,27.70
2019-04-10T18:11:43.466Z,28.40
2019-04-10T18:16:49.855Z,28.70
2019-04-10T18:21:58.421Z,29.60
2019-04-10T18:27:03.888Z,30.30
2019-04-10T18:32:10.235Z,30.40
2019-04-10T18:37:18.697Z,30.70
2019-04-10T18:42:24.207Z,30.80
2019-04-10T18:47:32.317Z,31.10
2019-04-10T18:52:37.791Z,31.10
2019-04-10T18:57:45.227Z,31.50
2019-04-10T19:03:09.606Z,31.20
2019-04-10T19:08:16.463Z,31.70
2019-04-10T19:13:24.846Z,31.70
2019-04-10T19:18:30.097Z,31.70
2019-04-10T19:23:39.644Z,31.90
2019-04-10T19:28:47.103Z,31.80
2019-04-10T19:33:54.383Z,31.90
2019-04-10T19:39:00.452Z,32.10
2019-04-10T19:44:06.464Z,32.00
2019-04-10T19:49:16.425Z,32.20
2019-04-10T19:54:26.459Z,33.20
2019-04-10T19:59:31.672Z,32.70
2019-04-10T20:04:38.824Z,32.90
2019-04-10T20:09:44.566Z,33.10
2019-04-10T20:14:50.338Z,32.90
2019-04-10T20:19:58.286Z,32.80
2019-04-10T20:25:02.940Z,33.10
2019-04-10T20:30:09.893Z,33.00
2019-04-10T20:35:16.124Z,32.90
2019-04-10T20:40:22.184Z,33.70
2019-04-10T20:45:29.424Z,33.10
2019-04-10T20:50:36.187Z,33.10
2019-04-10T20:55:41.978Z,33.20
2019-04-10T21:00:47.406Z,33.40
2019-04-10T21:05:52.863Z,33.30
2019-04-10T21:10:57.667Z,33.30
2019-04-10T21:16:02.987Z,33.50
2019-04-10T21:21:08.478Z,34.10
2019-04-10T21:26:14.364Z,34.10
2019-04-10T21:31:38.583Z,34.30
2019-04-10T21:36:43.685Z,34.50
2019-04-10T21:41:53.536Z,34.80
2019-04-10T21:46:59.308Z,34.00
2019-04-10T21:52:05.617Z,35.00
2019-04-10T21:57:10.907Z,35.40
2019-04-10T22:02:16.060Z,35.50
2019-04-10T22:07:38.509Z,35.90
2019-04-10T22:12:47.126Z,36.00
2019-04-10T22:17:50.722Z,36.10
2019-04-10T22:22:55.660Z,36.00
2019-04-10T22:28:04.339Z,36.80
2019-04-10T22:33:10.368Z,36.90
2019-04-10T22:38:15.263Z,37.10
2019-04-10T22:43:20.995Z,37.30
2019-04-10T22:48:26.136Z,37.40
2019-04-10T22:53:31.131Z,37.70
2019-04-10T22:58:37.268Z,37.90
2019-04-10T23:03:43.211Z,38.30
2019-04-10T23:08:49.652Z,37.80
2019-04-10T23:13:56.361Z,37.90
2019-04-10T23:19:02.057Z,38.00
2019-04-10T23:24:07.536Z,38.20
2019-04-10T23:29:13.914Z,38.40
2019-04-10T23:34:20.928Z,39.60
2019-04-10T23:39:26.478Z,39.60
2019-04-10T23:44:31.860Z,38.80
2019-04-10T23:49:37.384Z,39.60
2019-04-10T23:54:43.586Z,40.00
2019-04-10T23:59:49.370Z,40.10
